sensor_id;sensor_type;location;lat;lon;timestamp;temperature;humidity
19025;DHT22;9645;51.448;6.260;2023-02-19T00:00:11;10.20;99.90
19025;DHT22;9645;51.448;6.260;2023-02-19T00:02:40;10.00;99.90
19025;DHT22;9645;51.448;6.260;2023-02-19T00:05:09;10.10;99.90
19025;DHT22;9645;51.448;6.260;2023-02-19T00:07:36;10.20;99.90
19025;DHT22;9645;51.448;6.260;2023-02-19T00:10:03;10.10;99.90
19025;DHT22;9645;51.448;6.260;2023-02-19T00:17:24;10.20;99.90
19025;DHT22;9645;51.448;6.260;2023-02-19T00:22:20;10.10;99.90
19025;DHT22;9645;51.448;6.260;2023-02-19T00:24:47;10.20;99.90
19025;DHT22;9645;51.448;6.260;2023-02-19T00:27:14;10.10;99.90
19025;DHT22;9645;51.448;6.260;2023-02-19T00:37:03;10.00;99.90
19025;DHT22;9645;51.448;6.260;2023-02-19T00:39:31;10.10;99.90
19025;DHT22;9645;51.448;6.260;2023-02-19T00:46:53;10.00;99.90
19025;DHT22;9645;51.448;6.260;2023-02-19T00:49:21;10.10;99.90
19025;DHT22;9645;51.448;6.260;2023-02-19T00:51:50;10.10;99.90
19025;DHT22;9645;51.448;6.260;2023-02-19T00:54:17;10.10;99.90
19025;DHT22;9645;51.448;6.260;2023-02-19T00:56:45;10.10;99.90
19025;DHT22;9645;51.448;6.260;2023-02-19T00:59:13;10.10;99.90
19025;DHT22;9645;51.448;6.260;2023-02-19T01:01:40;10.00;99.90
19025;DHT22;9645;51.448;6.260;2023-02-19T01:04:09;10.10;99.90
19025;DHT22;9645;51.448;6.260;2023-02-19T01:09:04;10.10;99.90
19025;DHT22;9645;51.448;6.260;2023-02-19T01:14:01;10.10;99.90
19025;DHT22;9645;51.448;6.260;2023-02-19T01:18:56;10.10;99.90
19025;DHT22;9645;51.448;6.260;2023-02-19T01:21:25;10.10;99.90
19025;DHT22;9645;51.448;6.260;2023-02-19T01:23:53;10.00;99.90
19025;DHT22;9645;51.448;6.260;2023-02-19T01:26:23;10.10;99.90
19025;DHT22;9645;51.448;6.260;2023-02-19T01:28:51;10.00;99.90
19025;DHT22;9645;51.448;6.260;2023-02-19T01:31:21;10.10;99.90
19025;DHT22;9645;51.448;6.260;2023-02-19T01:33:49;10.10;99.90
19025;DHT22;9645;51.448;6.260;2023-02-19T01:36:17;10.00;99.90
19025;DHT22;9645;51.448;6.260;2023-02-19T01:38:44;10.10;99.90
19025;DHT22;9645;51.448;6.260;2023-02-19T01:41:14;10.10;99.90
19025;DHT22;9645;51.448;6.260;2023-02-19T01:44:02;10.10;99.90
19025;DHT22;9645;51.448;6.260;2023-02-19T01:46:32;10.10;99.90
19025;DHT22;9645;51.448;6.260;2023-02-19T01:49:03;10.00;99.90
19025;DHT22;9645;51.448;6.260;2023-02-19T01:51:32;10.10;99.90
19025;DHT22;9645;51.448;6.260;2023-02-19T01:54:02;10.10;99.90
19025;DHT22;9645;51.448;6.260;2023-02-19T01:56:31;10.10;99.90
19025;DHT22;9645;51.448;6.260;2023-02-19T01:59:00;10.00;99.90
19025;DHT22;9645;51.448;6.260;2023-02-19T02:01:27;10.10;99.90
19025;DHT22;9645;51.448;6.260;2023-02-19T02:03:56;10.00;99.90
19025;DHT22;9645;51.448;6.260;2023-02-19T02:06:26;10.10;99.90
19025;DHT22;9645;51.448;6.260;2023-02-19T02:08:56;10.10;99.90
19025;DHT22;9645;51.448;6.260;2023-02-19T02:11:44;10.10;99.90
19025;DHT22;9645;51.448;6.260;2023-02-19T02:16:44;10.10;99.90
19025;DHT22;9645;51.448;6.260;2023-02-19T02:19:30;10.00;99.90
19025;DHT22;9645;51.448;6.260;2023-02-19T02:22:03;10.10;99.90
19025;DHT22;9645;51.448;6.260;2023-02-19T02:27:42;10.10;99.90
19025;DHT22;9645;51.448;6.260;2023-02-19T02:30:26;10.10;99.90
19025;DHT22;9645;51.448;6.260;2023-02-19T02:33:01;10.10;99.90
19025;DHT22;9645;51.448;6.260;2023-02-19T02:35:33;10.10;99.90
19025;DHT22;9645;51.448;6.260;2023-02-19T02:38:03;10.10;99.90
19025;DHT22;9645;51.448;6.260;2023-02-19T02:40:32;10.00;99.90
19025;DHT22;9645;51.448;6.260;2023-02-19T02:42:59;10.00;99.90
19025;DHT22;9645;51.448;6.260;2023-02-19T02:45:30;10.00;99.90
19025;DHT22;9645;51.448;6.260;2023-02-19T02:48:04;10.10;99.90
19025;DHT22;9645;51.448;6.260;2023-02-19T02:50:35;9.90;99.90
19025;DHT22;9645;51.448;6.260;2023-02-19T02:53:06;10.10;99.90
19025;DHT22;9645;51.448;6.260;2023-02-19T02:55:52;10.00;99.90
19025;DHT22;9645;51.448;6.260;2023-02-19T02:58:21;10.00;99.90
19025;DHT22;9645;51.448;6.260;2023-02-19T03:00:53;10.00;99.90
19025;DHT22;9645;51.448;6.260;2023-02-19T03:03:42;10.00;99.90
19025;DHT22;9645;51.448;6.260;2023-02-19T03:06:11;10.00;99.90
19025;DHT22;9645;51.448;6.260;2023-02-19T03:08:46;10.00;99.90
19025;DHT22;9645;51.448;6.260;2023-02-19T03:11:13;10.00;99.90
19025;DHT22;9645;51.448;6.260;2023-02-19T03:14:03;10.10;99.90
19025;DHT22;9645;51.448;6.260;2023-02-19T03:16:51;10.00;99.90
19025;DHT22;9645;51.448;6.260;2023-02-19T03:19:42;10.00;99.90
19025;DHT22;9645;51.448;6.260;2023-02-19T03:22:13;10.00;99.90
19025;DHT22;9645;51.448;6.260;2023-02-19T03:24:48;10.10;99.90
19025;DHT22;9645;51.448;6.260;2023-02-19T03:27:33;10.00;99.90
19025;DHT22;9645;51.448;6.260;2023-02-19T03:30:06;10.00;99.90
19025;DHT22;9645;51.448;6.260;2023-02-19T03:32:39;10.00;99.90
19025;DHT22;9645;51.448;6.260;2023-02-19T03:35:10;10.00;99.90
19025;DHT22;9645;51.448;6.260;2023-02-19T03:37:44;10.20;99.90
19025;DHT22;9645;51.448;6.260;2023-02-19T03:40:13;10.00;99.90
19025;DHT22;9645;51.448;6.260;2023-02-19T03:42:43;10.00;99.90
19025;DHT22;9645;51.448;6.260;2023-02-19T03:45:33;9.90;99.90
19025;DHT22;9645;51.448;6.260;2023-02-19T03:48:22;10.00;99.90
19025;DHT22;9645;51.448;6.260;2023-02-19T03:53:48;9.90;99.90
19025;DHT22;9645;51.448;6.260;2023-02-19T03:56:23;9.90;99.90
19025;DHT22;9645;51.448;6.260;2023-02-19T03:58:55;10.00;99.90
19025;DHT22;9645;51.448;6.260;2023-02-19T04:01:27;9.90;99.90
19025;DHT22;9645;51.448;6.260;2023-02-19T04:03:59;9.90;99.90
19025;DHT22;9645;51.448;6.260;2023-02-19T04:06:30;9.90;99.90
19025;DHT22;9645;51.448;6.260;2023-02-19T04:09:00;9.90;99.90
19025;DHT22;9645;51.448;6.260;2023-02-19T04:11:29;9.90;99.90
19025;DHT22;9645;51.448;6.260;2023-02-19T04:14:01;9.90;99.90
19025;DHT22;9645;51.448;6.260;2023-02-19T04:16:32;9.70;99.90
19025;DHT22;9645;51.448;6.260;2023-02-19T04:19:05;9.90;99.90
19025;DHT22;9645;51.448;6.260;2023-02-19T04:21:34;9.80;99.90
19025;DHT22;9645;51.448;6.260;2023-02-19T04:24:05;9.90;99.90
19025;DHT22;9645;51.448;6.260;2023-02-19T04:29:00;9.70;99.90
19025;DHT22;9645;51.448;6.260;2023-02-19T04:31:28;9.80;99.90
19025;DHT22;9645;51.448;6.260;2023-02-19T04:34:02;9.80;99.90
19025;DHT22;9645;51.448;6.260;2023-02-19T04:43:50;9.80;99.90
19025;DHT22;9645;51.448;6.260;2023-02-19T04:46:17;9.80;99.90
19025;DHT22;9645;51.448;6.260;2023-02-19T04:48:44;9.70;99.90
19025;DHT22;9645;51.448;6.260;2023-02-19T04:51:13;9.70;99.90
19025;DHT22;9645;51.448;6.260;2023-02-19T04:56:08;9.70;99.90
19025;DHT22;9645;51.448;6.260;2023-02-19T04:58:35;9.70;99.90
19025;DHT22;9645;51.448;6.260;2023-02-19T05:06:01;9.70;99.90
19025;DHT22;9645;51.448;6.260;2023-02-19T05:08:30;9.70;99.90
19025;DHT22;9645;51.448;6.260;2023-02-19T05:10:58;9.70;99.90
19025;DHT22;9645;51.448;6.260;2023-02-19T05:15:56;9.80;99.90
19025;DHT22;9645;51.448;6.260;2023-02-19T05:20:51;9.70;99.90
19025;DHT22;9645;51.448;6.260;2023-02-19T05:23:19;9.70;99.90
19025;DHT22;9645;51.448;6.260;2023-02-19T05:25:48;9.70;99.90
19025;DHT22;9645;51.448;6.260;2023-02-19T05:28:15;9.60;99.90
19025;DHT22;9645;51.448;6.260;2023-02-19T05:30:45;9.70;99.90
19025;DHT22;9645;51.448;6.260;2023-02-19T05:33:12;9.50;99.90
19025;DHT22;9645;51.448;6.260;2023-02-19T05:35:41;9.70;99.90
19025;DHT22;9645;51.448;6.260;2023-02-19T05:38:08;9.70;99.90
19025;DHT22;9645;51.448;6.260;2023-02-19T05:40:35;9.70;99.90
19025;DHT22;9645;51.448;6.260;2023-02-19T05:43:04;9.60;99.90
19025;DHT22;9645;51.448;6.260;2023-02-19T05:45:32;9.60;99.90
19025;DHT22;9645;51.448;6.260;2023-02-19T05:47:59;9.50;99.90
19025;DHT22;9645;51.448;6.260;2023-02-19T05:50:27;9.60;99.90
19025;DHT22;9645;51.448;6.260;2023-02-19T05:52:54;9.60;99.90
19025;DHT22;9645;51.448;6.260;2023-02-19T06:00:18;9.70;99.90
19025;DHT22;9645;51.448;6.260;2023-02-19T06:05:13;9.50;99.90
19025;DHT22;9645;51.448;6.260;2023-02-19T06:07:40;9.40;99.90
19025;DHT22;9645;51.448;6.260;2023-02-19T06:10:08;9.40;99.90
19025;DHT22;9645;51.448;6.260;2023-02-19T06:15:04;9.30;99.90
19025;DHT22;9645;51.448;6.260;2023-02-19T06:17:33;9.30;99.90
19025;DHT22;9645;51.448;6.260;2023-02-19T06:22:27;9.30;99.90
19025;DHT22;9645;51.448;6.260;2023-02-19T06:32:16;9.40;99.90
19025;DHT22;9645;51.448;6.260;2023-02-19T06:34:44;9.30;99.90
19025;DHT22;9645;51.448;6.260;2023-02-19T06:39:38;9.30;99.90
19025;DHT22;9645;51.448;6.260;2023-02-19T06:42:05;9.30;99.90
19025;DHT22;9645;51.448;6.260;2023-02-19T06:44:32;9.30;99.90
19025;DHT22;9645;51.448;6.260;2023-02-19T06:46:59;9.30;99.90
19025;DHT22;9645;51.448;6.260;2023-02-19T06:49:26;9.30;99.90
19025;DHT22;9645;51.448;6.260;2023-02-19T06:51:55;9.30;99.90
19025;DHT22;9645;51.448;6.260;2023-02-19T06:54:23;9.30;99.90
19025;DHT22;9645;51.448;6.260;2023-02-19T06:56:51;9.30;99.90
19025;DHT22;9645;51.448;6.260;2023-02-19T06:59:18;9.40;99.90
19025;DHT22;9645;51.448;6.260;2023-02-19T07:01:45;9.40;99.90
19025;DHT22;9645;51.448;6.260;2023-02-19T07:06:40;9.40;99.90
19025;DHT22;9645;51.448;6.260;2023-02-19T07:09:09;9.40;99.90
19025;DHT22;9645;51.448;6.260;2023-02-19T07:11:38;9.40;99.90
19025;DHT22;9645;51.448;6.260;2023-02-19T07:14:06;9.40;99.90
19025;DHT22;9645;51.448;6.260;2023-02-19T07:16:34;9.40;99.90
19025;DHT22;9645;51.448;6.260;2023-02-19T07:19:02;9.40;99.90
19025;DHT22;9645;51.448;6.260;2023-02-19T07:21:29;9.40;99.90
19025;DHT22;9645;51.448;6.260;2023-02-19T07:23:56;9.40;99.90
19025;DHT22;9645;51.448;6.260;2023-02-19T07:26:24;9.30;99.90
19025;DHT22;9645;51.448;6.260;2023-02-19T07:28:52;9.30;99.90
19025;DHT22;9645;51.448;6.260;2023-02-19T07:31:21;9.30;99.90
19025;DHT22;9645;51.448;6.260;2023-02-19T07:33:49;9.40;99.90
19025;DHT22;9645;51.448;6.260;2023-02-19T07:36:17;9.40;99.90
19025;DHT22;9645;51.448;6.260;2023-02-19T07:43:40;9.30;99.90
19025;DHT22;9645;51.448;6.260;2023-02-19T07:46:09;9.50;99.90
19025;DHT22;9645;51.448;6.260;2023-02-19T07:48:37;9.40;99.90
19025;DHT22;9645;51.448;6.260;2023-02-19T07:51:06;9.50;99.90
19025;DHT22;9645;51.448;6.260;2023-02-19T07:53:34;9.40;99.90
19025;DHT22;9645;51.448;6.260;2023-02-19T07:56:02;9.40;99.90
19025;DHT22;9645;51.448;6.260;2023-02-19T07:58:30;9.50;99.90
19025;DHT22;9645;51.448;6.260;2023-02-19T08:01:07;9.50;99.90
19025;DHT22;9645;51.448;6.260;2023-02-19T08:03:34;9.50;99.90
19025;DHT22;9645;51.448;6.260;2023-02-19T08:10:59;9.60;99.90
19025;DHT22;9645;51.448;6.260;2023-02-19T08:13:43;9.60;99.90
19025;DHT22;9645;51.448;6.260;2023-02-19T08:16:13;9.70;99.90
19025;DHT22;9645;51.448;6.260;2023-02-19T08:18:42;9.70;99.90
19025;DHT22;9645;51.448;6.260;2023-02-19T08:23:37;9.60;99.90
19025;DHT22;9645;51.448;6.260;2023-02-19T08:26:05;9.60;99.90
19025;DHT22;9645;51.448;6.260;2023-02-19T08:28:33;8.70;99.90
19025;DHT22;9645;51.448;6.260;2023-02-19T08:31:01;9.60;99.90
19025;DHT22;9645;51.448;6.260;2023-02-19T08:33:30;9.60;99.90
19025;DHT22;9645;51.448;6.260;2023-02-19T08:36:01;9.70;99.90
19025;DHT22;9645;51.448;6.260;2023-02-19T08:38:30;9.60;99.90
19025;DHT22;9645;51.448;6.260;2023-02-19T08:45:52;9.70;99.90
19025;DHT22;9645;51.448;6.260;2023-02-19T08:50:54;9.50;99.90
19025;DHT22;9645;51.448;6.260;2023-02-19T08:53:21;9.40;99.90
19025;DHT22;9645;51.448;6.260;2023-02-19T08:55:49;9.40;99.90
19025;DHT22;9645;51.448;6.260;2023-02-19T09:03:10;9.40;99.90
19025;DHT22;9645;51.448;6.260;2023-02-19T09:05:37;9.50;99.90
19025;DHT22;9645;51.448;6.260;2023-02-19T09:08:06;9.60;99.90
19025;DHT22;9645;51.448;6.260;2023-02-19T09:10:33;9.60;99.90
19025;DHT22;9645;51.448;6.260;2023-02-19T09:13:00;9.90;99.90
19025;DHT22;9645;51.448;6.260;2023-02-19T09:15:28;10.00;99.90
19025;DHT22;9645;51.448;6.260;2023-02-19T09:20:24;10.00;99.90
19025;DHT22;9645;51.448;6.260;2023-02-19T09:22:56;10.00;99.90
19025;DHT22;9645;51.448;6.260;2023-02-19T09:25:24;10.10;99.90
19025;DHT22;9645;51.448;6.260;2023-02-19T09:27:54;10.10;99.90
19025;DHT22;9645;51.448;6.260;2023-02-19T09:30:21;10.20;99.90
19025;DHT22;9645;51.448;6.260;2023-02-19T09:32:48;10.30;99.90
19025;DHT22;9645;51.448;6.260;2023-02-19T09:37:42;10.40;99.90
19025;DHT22;9645;51.448;6.260;2023-02-19T09:40:10;10.70;99.90
19025;DHT22;9645;51.448;6.260;2023-02-19T09:42:40;10.90;99.90
19025;DHT22;9645;51.448;6.260;2023-02-19T09:45:14;10.60;99.90
19025;DHT22;9645;51.448;6.260;2023-02-19T09:47:45;10.50;99.90
19025;DHT22;9645;51.448;6.260;2023-02-19T09:50:17;10.20;99.90
19025;DHT22;9645;51.448;6.260;2023-02-19T09:52:50;10.20;99.90
19025;DHT22;9645;51.448;6.260;2023-02-19T09:55:26;10.10;99.90
19025;DHT22;9645;51.448;6.260;2023-02-19T09:57:57;10.10;99.90
19025;DHT22;9645;51.448;6.260;2023-02-19T10:00:25;10.00;99.90
19025;DHT22;9645;51.448;6.260;2023-02-19T10:02:56;10.00;99.90
19025;DHT22;9645;51.448;6.260;2023-02-19T10:05:25;10.00;99.90
19025;DHT22;9645;51.448;6.260;2023-02-19T10:07:53;10.10;99.90
19025;DHT22;9645;51.448;6.260;2023-02-19T10:10:26;10.20;99.90
19025;DHT22;9645;51.448;6.260;2023-02-19T10:13:01;10.40;99.90
19025;DHT22;9645;51.448;6.260;2023-02-19T10:15:39;10.10;99.90
19025;DHT22;9645;51.448;6.260;2023-02-19T10:18:07;10.10;99.90
19025;DHT22;9645;51.448;6.260;2023-02-19T10:20:35;9.80;99.90
19025;DHT22;9645;51.448;6.260;2023-02-19T10:23:05;9.70;99.90
19025;DHT22;9645;51.448;6.260;2023-02-19T10:25:34;9.70;99.90
19025;DHT22;9645;51.448;6.260;2023-02-19T10:28:03;9.60;99.90
19025;DHT22;9645;51.448;6.260;2023-02-19T10:30:32;9.60;99.90
19025;DHT22;9645;51.448;6.260;2023-02-19T10:33:02;9.50;99.90
19025;DHT22;9645;51.448;6.260;2023-02-19T10:35:30;9.40;99.90
19025;DHT22;9645;51.448;6.260;2023-02-19T10:40:31;9.40;99.90
19025;DHT22;9645;51.448;6.260;2023-02-19T10:43:03;9.40;99.90
19025;DHT22;9645;51.448;6.260;2023-02-19T10:45:37;9.40;99.90
19025;DHT22;9645;51.448;6.260;2023-02-19T10:48:06;9.40;99.90
19025;DHT22;9645;51.448;6.260;2023-02-19T10:50:36;9.40;99.90
19025;DHT22;9645;51.448;6.260;2023-02-19T10:53:21;9.40;99.90
19025;DHT22;9645;51.448;6.260;2023-02-19T10:56:05;9.50;99.90
19025;DHT22;9645;51.448;6.260;2023-02-19T10:58:34;9.60;99.90
19025;DHT22;9645;51.448;6.260;2023-02-19T11:01:16;9.60;99.90
19025;DHT22;9645;51.448;6.260;2023-02-19T11:03:46;9.60;99.90
19025;DHT22;9645;51.448;6.260;2023-02-19T11:06:14;9.70;99.90
19025;DHT22;9645;51.448;6.260;2023-02-19T11:08:49;9.90;99.90
19025;DHT22;9645;51.448;6.260;2023-02-19T11:11:29;9.90;99.90
19025;DHT22;9645;51.448;6.260;2023-02-19T11:14:00;9.80;99.90
19025;DHT22;9645;51.448;6.260;2023-02-19T11:16:43;9.90;99.90
19025;DHT22;9645;51.448;6.260;2023-02-19T11:19:36;9.90;99.90
19025;DHT22;9645;51.448;6.260;2023-02-19T11:22:26;10.00;99.90
19025;DHT22;9645;51.448;6.260;2023-02-19T11:24:55;10.10;99.90
19025;DHT22;9645;51.448;6.260;2023-02-19T11:27:23;10.20;99.90
19025;DHT22;9645;51.448;6.260;2023-02-19T11:29:52;10.30;99.90
19025;DHT22;9645;51.448;6.260;2023-02-19T11:32:27;10.30;99.90
19025;DHT22;9645;51.448;6.260;2023-02-19T11:35:13;10.60;99.90
19025;DHT22;9645;51.448;6.260;2023-02-19T11:37:53;10.70;99.90
19025;DHT22;9645;51.448;6.260;2023-02-19T11:40:26;10.80;99.90
19025;DHT22;9645;51.448;6.260;2023-02-19T11:42:57;10.70;99.90
19025;DHT22;9645;51.448;6.260;2023-02-19T11:45:36;10.60;99.90
19025;DHT22;9645;51.448;6.260;2023-02-19T11:48:35;10.60;99.90
19025;DHT22;9645;51.448;6.260;2023-02-19T11:51:22;10.50;99.90
19025;DHT22;9645;51.448;6.260;2023-02-19T11:54:02;12.30;99.90
19025;DHT22;9645;51.448;6.260;2023-02-19T11:56:35;10.70;99.90
19025;DHT22;9645;51.448;6.260;2023-02-19T11:59:03;10.70;99.90
19025;DHT22;9645;51.448;6.260;2023-02-19T12:01:57;10.80;99.90
19025;DHT22;9645;51.448;6.260;2023-02-19T12:05:00;10.80;99.90
19025;DHT22;9645;51.448;6.260;2023-02-19T12:07:53;10.80;99.90
19025;DHT22;9645;51.448;6.260;2023-02-19T12:10:30;10.70;99.90
19025;DHT22;9645;51.448;6.260;2023-02-19T12:13:07;10.80;99.90
19025;DHT22;9645;51.448;6.260;2023-02-19T12:18:53;10.80;99.90
19025;DHT22;9645;51.448;6.260;2023-02-19T12:21:35;10.80;99.90
19025;DHT22;9645;51.448;6.260;2023-02-19T12:24:23;10.80;99.90
19025;DHT22;9645;51.448;6.260;2023-02-19T12:27:03;10.80;99.90
19025;DHT22;9645;51.448;6.260;2023-02-19T12:29:50;10.70;99.90
19025;DHT22;9645;51.448;6.260;2023-02-19T12:32:43;10.80;99.90
19025;DHT22;9645;51.448;6.260;2023-02-19T12:35:30;10.60;99.90
19025;DHT22;9645;51.448;6.260;2023-02-19T12:38:09;10.40;99.90
19025;DHT22;9645;51.448;6.260;2023-02-19T12:40:46;10.40;99.90
19025;DHT22;9645;51.448;6.260;2023-02-19T12:43:17;10.40;99.90
19025;DHT22;9645;51.448;6.260;2023-02-19T12:45:48;10.30;99.90
19025;DHT22;9645;51.448;6.260;2023-02-19T12:48:23;10.30;99.90
19025;DHT22;9645;51.448;6.260;2023-02-19T12:50:56;10.40;99.90
19025;DHT22;9645;51.448;6.260;2023-02-19T12:53:37;10.50;99.90
19025;DHT22;9645;51.448;6.260;2023-02-19T12:56:07;10.60;99.90
19025;DHT22;9645;51.448;6.260;2023-02-19T12:58:41;10.60;99.90
19025;DHT22;9645;51.448;6.260;2023-02-19T13:01:12;10.60;99.90
19025;DHT22;9645;51.448;6.260;2023-02-19T13:03:46;10.60;99.90
19025;DHT22;9645;51.448;6.260;2023-02-19T13:06:23;10.50;99.90
19025;DHT22;9645;51.448;6.260;2023-02-19T13:08:56;10.50;99.90
19025;DHT22;9645;51.448;6.260;2023-02-19T13:11:28;10.50;99.90
19025;DHT22;9645;51.448;6.260;2023-02-19T13:13:59;10.40;99.90
19025;DHT22;9645;51.448;6.260;2023-02-19T13:16:29;10.20;99.90
19025;DHT22;9645;51.448;6.260;2023-02-19T13:19:00;10.30;99.90
19025;DHT22;9645;51.448;6.260;2023-02-19T13:21:31;10.30;99.90
19025;DHT22;9645;51.448;6.260;2023-02-19T13:24:24;10.30;99.90
19025;DHT22;9645;51.448;6.260;2023-02-19T13:27:15;10.20;99.90
19025;DHT22;9645;51.448;6.260;2023-02-19T13:30:07;10.20;99.90
19025;DHT22;9645;51.448;6.260;2023-02-19T13:32:53;10.30;99.90
19025;DHT22;9645;51.448;6.260;2023-02-19T13:35:26;10.20;99.90
19025;DHT22;9645;51.448;6.260;2023-02-19T13:38:00;10.20;99.90
19025;DHT22;9645;51.448;6.260;2023-02-19T13:40:30;10.20;99.90
19025;DHT22;9645;51.448;6.260;2023-02-19T13:42:59;10.10;99.90
19025;DHT22;9645;51.448;6.260;2023-02-19T13:45:32;10.30;99.90
19025;DHT22;9645;51.448;6.260;2023-02-19T13:48:01;10.30;99.90
19025;DHT22;9645;51.448;6.260;2023-02-19T13:50:38;10.30;99.90
19025;DHT22;9645;51.448;6.260;2023-02-19T13:53:55;10.40;99.90
19025;DHT22;9645;51.448;6.260;2023-02-19T13:56:36;10.40;99.90
19025;DHT22;9645;51.448;6.260;2023-02-19T13:59:23;10.40;99.90
19025;DHT22;9645;51.448;6.260;2023-02-19T14:05:04;10.30;99.90
19025;DHT22;9645;51.448;6.260;2023-02-19T14:13:59;10.20;99.90
19025;DHT22;9645;51.448;6.260;2023-02-19T14:16:58;10.30;99.90
19025;DHT22;9645;51.448;6.260;2023-02-19T14:19:49;10.20;99.90
19025;DHT22;9645;51.448;6.260;2023-02-19T14:25:46;10.30;99.90
19025;DHT22;9645;51.448;6.260;2023-02-19T14:28:21;10.20;99.90
19025;DHT22;9645;51.448;6.260;2023-02-19T14:30:52;10.30;99.90
19025;DHT22;9645;51.448;6.260;2023-02-19T14:33:21;10.10;99.90
19025;DHT22;9645;51.448;6.260;2023-02-19T14:35:52;10.20;99.90
19025;DHT22;9645;51.448;6.260;2023-02-19T14:38:23;10.10;99.90
19025;DHT22;9645;51.448;6.260;2023-02-19T14:40:51;10.10;99.90
19025;DHT22;9645;51.448;6.260;2023-02-19T14:43:22;10.10;99.90
19025;DHT22;9645;51.448;6.260;2023-02-19T14:45:54;10.10;99.90
19025;DHT22;9645;51.448;6.260;2023-02-19T14:48:25;10.10;99.90
19025;DHT22;9645;51.448;6.260;2023-02-19T14:50:57;10.10;99.90
19025;DHT22;9645;51.448;6.260;2023-02-19T14:53:28;10.10;99.90
19025;DHT22;9645;51.448;6.260;2023-02-19T14:55:56;10.10;99.90
19025;DHT22;9645;51.448;6.260;2023-02-19T14:58:27;10.10;99.90
19025;DHT22;9645;51.448;6.260;2023-02-19T15:00:56;10.00;99.90
19025;DHT22;9645;51.448;6.260;2023-02-19T15:03:26;9.90;99.90
19025;DHT22;9645;51.448;6.260;2023-02-19T15:05:55;9.90;99.90
19025;DHT22;9645;51.448;6.260;2023-02-19T15:08:28;9.90;99.90
19025;DHT22;9645;51.448;6.260;2023-02-19T15:10:57;9.90;99.90
19025;DHT22;9645;51.448;6.260;2023-02-19T15:13:26;9.90;99.90
19025;DHT22;9645;51.448;6.260;2023-02-19T15:15:55;9.90;99.90
19025;DHT22;9645;51.448;6.260;2023-02-19T15:18:24;9.90;99.90
19025;DHT22;9645;51.448;6.260;2023-02-19T15:20:58;9.80;99.90
19025;DHT22;9645;51.448;6.260;2023-02-19T15:23:26;9.80;99.90
19025;DHT22;9645;51.448;6.260;2023-02-19T15:25:56;9.80;99.90
19025;DHT22;9645;51.448;6.260;2023-02-19T15:28:29;9.50;99.90
19025;DHT22;9645;51.448;6.260;2023-02-19T15:31:12;9.70;99.90
19025;DHT22;9645;51.448;6.260;2023-02-19T15:33:47;9.50;99.90
19025;DHT22;9645;51.448;6.260;2023-02-19T15:36:23;9.40;99.90
19025;DHT22;9645;51.448;6.260;2023-02-19T15:38:53;9.20;99.90
19025;DHT22;9645;51.448;6.260;2023-02-19T15:41:22;9.20;99.90
19025;DHT22;9645;51.448;6.260;2023-02-19T15:43:57;9.20;99.90
19025;DHT22;9645;51.448;6.260;2023-02-19T15:46:27;9.10;99.90
19025;DHT22;9645;51.448;6.260;2023-02-19T15:48:59;9.20;99.90
19025;DHT22;9645;51.448;6.260;2023-02-19T15:51:30;9.00;99.90
19025;DHT22;9645;51.448;6.260;2023-02-19T15:54:05;9.00;99.90
19025;DHT22;9645;51.448;6.260;2023-02-19T15:56:39;9.00;99.90
19025;DHT22;9645;51.448;6.260;2023-02-19T15:59:14;9.00;99.90
19025;DHT22;9645;51.448;6.260;2023-02-19T16:01:43;9.00;99.90
19025;DHT22;9645;51.448;6.260;2023-02-19T16:04:13;9.00;99.90
19025;DHT22;9645;51.448;6.260;2023-02-19T16:06:59;8.90;99.90
19025;DHT22;9645;51.448;6.260;2023-02-19T16:09:28;10.20;99.90
19025;DHT22;9645;51.448;6.260;2023-02-19T16:11:57;9.00;99.90
19025;DHT22;9645;51.448;6.260;2023-02-19T16:14:29;9.00;99.90
19025;DHT22;9645;51.448;6.260;2023-02-19T16:16:59;9.00;99.90
19025;DHT22;9645;51.448;6.260;2023-02-19T16:19:29;8.90;99.90
19025;DHT22;9645;51.448;6.260;2023-02-19T16:21:57;8.90;99.90
19025;DHT22;9645;51.448;6.260;2023-02-19T16:24:27;8.90;99.90
19025;DHT22;9645;51.448;6.260;2023-02-19T16:26:56;8.80;99.90
19025;DHT22;9645;51.448;6.260;2023-02-19T16:29:26;8.80;99.90
19025;DHT22;9645;51.448;6.260;2023-02-19T16:31:56;8.80;99.90
19025;DHT22;9645;51.448;6.260;2023-02-19T16:34:33;8.70;99.90
19025;DHT22;9645;51.448;6.260;2023-02-19T16:37:01;8.60;99.90
19025;DHT22;9645;51.448;6.260;2023-02-19T16:39:29;8.60;99.90
19025;DHT22;9645;51.448;6.260;2023-02-19T16:42:14;8.60;99.90
19025;DHT22;9645;51.448;6.260;2023-02-19T16:44:42;8.50;99.90
19025;DHT22;9645;51.448;6.260;2023-02-19T16:47:29;8.50;99.90
19025;DHT22;9645;51.448;6.260;2023-02-19T16:49:59;8.40;99.90
19025;DHT22;9645;51.448;6.260;2023-02-19T16:52:27;8.30;99.90
19025;DHT22;9645;51.448;6.260;2023-02-19T17:02:20;8.20;99.90
19025;DHT22;9645;51.448;6.260;2023-02-19T17:04:50;8.20;99.90
19025;DHT22;9645;51.448;6.260;2023-02-19T17:07:20;8.20;99.90
19025;DHT22;9645;51.448;6.260;2023-02-19T17:09:47;8.20;99.90
19025;DHT22;9645;51.448;6.260;2023-02-19T17:12:15;8.20;99.90
19025;DHT22;9645;51.448;6.260;2023-02-19T17:19:37;8.20;99.90
19025;DHT22;9645;51.448;6.260;2023-02-19T17:22:06;8.20;99.90
19025;DHT22;9645;51.448;6.260;2023-02-19T17:29:28;8.10;99.90
19025;DHT22;9645;51.448;6.260;2023-02-19T17:31:58;8.00;99.90
19025;DHT22;9645;51.448;6.260;2023-02-19T17:39:21;7.80;99.90
19025;DHT22;9645;51.448;6.260;2023-02-19T17:41:49;7.80;99.90
19025;DHT22;9645;51.448;6.260;2023-02-19T17:46:45;7.80;99.90
19025;DHT22;9645;51.448;6.260;2023-02-19T17:49:12;7.80;99.90
19025;DHT22;9645;51.448;6.260;2023-02-19T17:51:39;7.80;99.90
19025;DHT22;9645;51.448;6.260;2023-02-19T17:54:06;7.70;99.90
19025;DHT22;9645;51.448;6.260;2023-02-19T17:56:37;7.80;99.90
19025;DHT22;9645;51.448;6.260;2023-02-19T17:59:08;7.70;99.90
19025;DHT22;9645;51.448;6.260;2023-02-19T18:01:35;7.50;99.90
19025;DHT22;9645;51.448;6.260;2023-02-19T18:04:02;7.60;99.90
19025;DHT22;9645;51.448;6.260;2023-02-19T18:06:29;7.70;99.90
19025;DHT22;9645;51.448;6.260;2023-02-19T18:13:52;7.80;99.90
19025;DHT22;9645;51.448;6.260;2023-02-19T18:16:20;7.80;99.90
19025;DHT22;9645;51.448;6.260;2023-02-19T18:18:48;7.70;99.90
19025;DHT22;9645;51.448;6.260;2023-02-19T18:21:15;7.70;99.90
19025;DHT22;9645;51.448;6.260;2023-02-19T18:23:43;7.70;99.90
19025;DHT22;9645;51.448;6.260;2023-02-19T18:26:11;7.60;99.90
19025;DHT22;9645;51.448;6.260;2023-02-19T18:28:38;7.30;99.90
19025;DHT22;9645;51.448;6.260;2023-02-19T18:31:07;7.60;99.90
19025;DHT22;9645;51.448;6.260;2023-02-19T18:33:34;7.60;99.90
19025;DHT22;9645;51.448;6.260;2023-02-19T18:36:02;7.60;99.90
19025;DHT22;9645;51.448;6.260;2023-02-19T18:38:29;7.70;99.90
19025;DHT22;9645;51.448;6.260;2023-02-19T18:40:56;7.60;99.90
19025;DHT22;9645;51.448;6.260;2023-02-19T18:48:19;7.60;99.90
19025;DHT22;9645;51.448;6.260;2023-02-19T18:50:46;7.60;99.90
19025;DHT22;9645;51.448;6.260;2023-02-19T18:55:40;7.60;99.90
19025;DHT22;9645;51.448;6.260;2023-02-19T19:00:35;7.60;99.90
19025;DHT22;9645;51.448;6.260;2023-02-19T19:05:31;7.60;99.90
19025;DHT22;9645;51.448;6.260;2023-02-19T19:10:26;7.50;99.90
19025;DHT22;9645;51.448;6.260;2023-02-19T19:12:54;7.50;99.90
19025;DHT22;9645;51.448;6.260;2023-02-19T19:17:49;7.50;99.90
19025;DHT22;9645;51.448;6.260;2023-02-19T19:20:17;7.50;99.90